createdAt,value
2023-03-15T00:03:21.325Z,4
2023-03-15T00:31:35.100Z,7
2023-03-15T00:59:59.103Z,7
2023-03-15T01:28:21.530Z,7
2023-03-15T01:56:36.340Z,7
2023-03-15T02:24:49.446Z,7
2023-03-15T02:53:14.329Z,7
2023-03-15T03:21:24.033Z,7
2023-03-15T03:49:45.442Z,8
2023-03-15T04:18:05.660Z,7
2023-03-15T04:46:11.219Z,7
2023-03-15T05:14:27.771Z,10
2023-03-15T05:42:41.351Z,10
2023-03-15T06:11:02.438Z,8
2023-03-15T06:39:29.714Z,8
2023-03-15T07:08:21.823Z,8
2023-03-15T07:36:46.523Z,7
2023-03-15T08:05:10.700Z,5
2023-03-15T08:33:39.989Z,7
2023-03-15T09:01:44.442Z,5
2023-03-15T09:30:21.244Z,6
2023-03-15T09:58:24.971Z,7
2023-03-15T10:27:06.872Z,7
2023-03-15T10:55:33.284Z,7
2023-03-15T11:23:47.759Z,3
2023-03-15T11:51:45.034Z,4
2023-03-15T12:20:04.132Z,4
2023-03-15T12:48:22.013Z,2
2023-03-15T13:16:45.930Z,4
2023-03-15T13:45:02.769Z,7
2023-03-15T14:13:23.525Z,5
2023-03-15T14:41:36.781Z,5
2023-03-15T15:10:00.714Z,7
2023-03-15T15:38:17.150Z,4
2023-03-15T16:06:36.559Z,4
2023-03-15T16:35:41.024Z,7
2023-03-15T17:04:31.462Z,7
2023-03-15T17:33:25.929Z,5
2023-03-15T18:01:51.166Z,5
2023-03-15T18:30:05.281Z,7
2023-03-15T18:58:21.472Z,14
2023-03-15T19:26:40.908Z,20
2023-03-15T19:55:37.337Z,17
2023-03-15T20:24:32.312Z,19
2023-03-15T20:53:37.654Z,10
2023-03-15T21:22:46.222Z,8
2023-03-15T21:51:53.852Z,11
2023-03-15T22:20:55.469Z,8
2023-03-15T22:49:54.415Z,7
2023-03-15T23:18:55.521Z,10
2023-03-15T23:47:05.488Z,5
